This is the latest recevied weather packets stored in our database for station/object KC7UNY-13. If no packets are shown the sender has not sent any weather packets the latest 10 day(s).
| Time | Temp. | Humidity | Pressure | Rain* | Wind** | Luminosity | Snow |
|---|---|---|---|---|---|---|---|
| 1778006568 | 23.33° C | 42% | 1011.7 hPa | 0 mm | - | 816 W/m² | - |
| 1778006264 | 23.33° C | 42% | 1011.7 hPa | 0 mm | - | 812 W/m² | - |
| 1778005962 | 23.33° C | 42% | 1012 hPa | 0 mm | - | 810 W/m² | - |
| 1778005658 | 23.33° C | 43% | 1012 hPa | 0 mm | - | 855 W/m² | - |
| 1778005355 | 22.78° C | 45% | 1011.9 hPa | 0 mm | - | 890 W/m² | - |
| 1778005051 | 22.78° C | 45% | 1011.8 hPa | 0 mm | - | 193 W/m² | - |
| 1778004749 | 22.22° C | 45% | 1011.7 hPa | 0 mm | - | 309 W/m² | - |
| 1778004446 | 22.22° C | 46% | 1011.9 hPa | 0 mm | - | 270 W/m² | - |
| 1778004142 | 22.78° C | 43% | 1011.8 hPa | 0 mm | - | 207 W/m² | - |
| 1778003838 | 22.78° C | 44% | 1011.8 hPa | 0 mm | - | 810 W/m² | - |
| 1778003535 | 22.78° C | 45% | 1011.8 hPa | 0 mm | - | 815 W/m² | - |
| 1778003232 | 22.22° C | 46% | 1011.7 hPa | 0 mm | - | 614 W/m² | - |
| 1778002929 | 22.78° C | 48% | 1011.9 hPa | 0 mm | - | 287 W/m² | - |
| 1778002625 | 22.78° C | 48% | 1011.9 hPa | 0 mm | - | 856 W/m² | - |
| 1778002321 | 21.67° C | 51% | 1011.9 hPa | 0 mm | - | 240 W/m² | - |
| 1778002019 | 21.67° C | 51% | 1012 hPa | 0 mm | - | 270 W/m² | - |
| 1778001716 | 21.11° C | 52% | 1011.9 hPa | 0 mm | - | 178 W/m² | - |
| 1778001415 | 21.67° C | 52% | 1012 hPa | 0 mm | - | 296 W/m² | - |
| 1778001112 | 21.11° C | 54% | 1011.9 hPa | 0 mm | - | 266 W/m² | - |
| 1778000810 | 20.56° C | 55% | 1012.1 hPa | 0 mm | - | 273 W/m² | - |
| 1778000506 | 21.11° C | 54% | 1011.9 hPa | 0 mm | - | 195 W/m² | - |
| 1778000206 | 20.56° C | 56% | 1012 hPa | 0 mm | - | 130 W/m² | - |
| 1777999903 | 21.11° C | 55% | 1011.9 hPa | 0 mm | - | 151 W/m² | - |
| 1777999598 | 21.11° C | 55% | 1011.9 hPa | 0 mm | - | 175 W/m² | - |
| 1777999296 | 21.67° C | 54% | 1011.9 hPa | 0 mm | - | 215 W/m² | - |
* Rain latest hour (hover to see other rain measurements)
** Current wind speed in m/s (hover to see current wind gust speed)